sensor_id;sensor_type;location;lat;lon;timestamp;pressure;altitude;pressure_sealevel;temperature
69007;BMP180;56061;51.748;19.620;2023-09-12T00:00:06;98694.40;;;15.80
69007;BMP180;56061;51.748;19.620;2023-09-12T00:02:33;98692.20;;;15.80
69007;BMP180;56061;51.748;19.620;2023-09-12T00:04:59;98687.20;;;15.80
69007;BMP180;56061;51.748;19.620;2023-09-12T00:07:26;98690.00;;;15.80
69007;BMP180;56061;51.748;19.620;2023-09-12T00:09:52;98684.60;;;15.90
69007;BMP180;56061;51.748;19.620;2023-09-12T00:12:23;98684.40;;;15.86
69007;BMP180;56061;51.748;19.620;2023-09-12T00:14:51;98680.80;;;15.80
69007;BMP180;56061;51.748;19.620;2023-09-12T00:17:18;98681.00;;;15.78
69007;BMP180;56061;51.748;19.620;2023-09-12T00:19:44;98685.20;;;15.70
69007;BMP180;56061;51.748;19.620;2023-09-12T00:22:11;98684.00;;;15.70
69007;BMP180;56061;51.748;19.620;2023-09-12T00:24:37;98685.80;;;15.70
69007;BMP180;56061;51.748;19.620;2023-09-12T00:27:04;98685.20;;;15.70
69007;BMP180;56061;51.748;19.620;2023-09-12T00:29:32;98683.40;;;15.60
69007;BMP180;56061;51.748;19.620;2023-09-12T00:31:58;98680.60;;;15.60
69007;BMP180;56061;51.748;19.620;2023-09-12T00:34:25;98682.60;;;15.60
69007;BMP180;56061;51.748;19.620;2023-09-12T00:36:52;98678.60;;;15.60
69007;BMP180;56061;51.748;19.620;2023-09-12T00:39:18;98682.80;;;15.60
69007;BMP180;56061;51.748;19.620;2023-09-12T00:41:45;98683.00;;;15.60
69007;BMP180;56061;51.748;19.620;2023-09-12T00:44:12;98685.20;;;15.58
69007;BMP180;56061;51.748;19.620;2023-09-12T00:46:39;98682.60;;;15.50
69007;BMP180;56061;51.748;19.620;2023-09-12T00:49:07;98684.00;;;15.50
69007;BMP180;56061;51.748;19.620;2023-09-12T00:51:35;98681.40;;;15.50
69007;BMP180;56061;51.748;19.620;2023-09-12T00:54:02;98679.80;;;15.42
69007;BMP180;56061;51.748;19.620;2023-09-12T00:56:29;98678.00;;;15.40
69007;BMP180;56061;51.748;19.620;2023-09-12T00:58:56;98682.20;;;15.40
69007;BMP180;56061;51.748;19.620;2023-09-12T01:01:23;98683.40;;;15.40
69007;BMP180;56061;51.748;19.620;2023-09-12T01:03:50;98680.00;;;15.40
69007;BMP180;56061;51.748;19.620;2023-09-12T01:06:21;98677.80;;;15.40
69007;BMP180;56061;51.748;19.620;2023-09-12T01:08:49;98678.80;;;15.40
69007;BMP180;56061;51.748;19.620;2023-09-12T01:11:16;98675.40;;;15.38
69007;BMP180;56061;51.748;19.620;2023-09-12T01:13:43;98675.00;;;15.30
69007;BMP180;56061;51.748;19.620;2023-09-12T01:16:10;98674.40;;;15.30
69007;BMP180;56061;51.748;19.620;2023-09-12T01:18:37;98673.00;;;15.30
69007;BMP180;56061;51.748;19.620;2023-09-12T01:27:19;98669.20;;;15.20
69007;BMP180;56061;51.748;19.620;2023-09-12T01:29:54;98668.00;;;15.20
69007;BMP180;56061;51.748;19.620;2023-09-12T01:32:22;98672.80;;;15.10
69007;BMP180;56061;51.748;19.620;2023-09-12T01:34:48;98671.60;;;15.10
69007;BMP180;56061;51.748;19.620;2023-09-12T01:37:15;98667.20;;;15.10
69007;BMP180;56061;51.748;19.620;2023-09-12T01:39:42;98671.00;;;15.00
69007;BMP180;56061;51.748;19.620;2023-09-12T01:42:20;98670.00;;;15.00
69007;BMP180;56061;51.748;19.620;2023-09-12T01:44:51;98675.80;;;15.00
69007;BMP180;56061;51.748;19.620;2023-09-12T01:47:21;98674.80;;;14.90
69007;BMP180;56061;51.748;19.620;2023-09-12T01:49:54;98675.80;;;14.90
69007;BMP180;56061;51.748;19.620;2023-09-12T01:52:23;98674.40;;;14.80
69007;BMP180;56061;51.748;19.620;2023-09-12T01:54:51;98679.40;;;14.80
69007;BMP180;56061;51.748;19.620;2023-09-12T01:57:19;98678.80;;;14.80
69007;BMP180;56061;51.748;19.620;2023-09-12T01:59:49;98676.80;;;14.80
69007;BMP180;56061;51.748;19.620;2023-09-12T02:02:16;98677.80;;;14.80
69007;BMP180;56061;51.748;19.620;2023-09-12T02:05:15;98677.20;;;14.80
69007;BMP180;56061;51.748;19.620;2023-09-12T02:07:46;98679.60;;;14.72
69007;BMP180;56061;51.748;19.620;2023-09-12T02:10:13;98681.80;;;14.70
69007;BMP180;56061;51.748;19.620;2023-09-12T02:12:40;98684.40;;;14.70
69007;BMP180;56061;51.748;19.620;2023-09-12T02:15:08;98680.40;;;14.70
69007;BMP180;56061;51.748;19.620;2023-09-12T02:17:35;98679.00;;;14.70
69007;BMP180;56061;51.748;19.620;2023-09-12T02:20:01;98683.00;;;14.70
69007;BMP180;56061;51.748;19.620;2023-09-12T02:22:31;98683.20;;;14.70
69007;BMP180;56061;51.748;19.620;2023-09-12T02:24:57;98684.00;;;14.70
69007;BMP180;56061;51.748;19.620;2023-09-12T02:27:24;98676.80;;;14.70
69007;BMP180;56061;51.748;19.620;2023-09-12T02:29:50;98681.20;;;14.70
69007;BMP180;56061;51.748;19.620;2023-09-12T02:32:17;98679.60;;;14.70
69007;BMP180;56061;51.748;19.620;2023-09-12T02:34:43;98680.00;;;14.70
69007;BMP180;56061;51.748;19.620;2023-09-12T02:37:10;98681.40;;;14.70
69007;BMP180;56061;51.748;19.620;2023-09-12T02:39:36;98680.60;;;14.70
69007;BMP180;56061;51.748;19.620;2023-09-12T02:42:03;98683.00;;;14.70
69007;BMP180;56061;51.748;19.620;2023-09-12T02:44:30;98683.40;;;14.70
69007;BMP180;56061;51.748;19.620;2023-09-12T02:46:56;98681.80;;;14.66
69007;BMP180;56061;51.748;19.620;2023-09-12T02:49:23;98684.60;;;14.68
69007;BMP180;56061;51.748;19.620;2023-09-12T02:51:49;98681.40;;;14.60
69007;BMP180;56061;51.748;19.620;2023-09-12T02:54:15;98684.60;;;14.60
69007;BMP180;56061;51.748;19.620;2023-09-12T02:56:42;98681.60;;;14.60
69007;BMP180;56061;51.748;19.620;2023-09-12T02:59:08;98681.00;;;14.60
69007;BMP180;56061;51.748;19.620;2023-09-12T03:01:35;98683.00;;;14.70
69007;BMP180;56061;51.748;19.620;2023-09-12T03:04:02;98682.80;;;14.70
69007;BMP180;56061;51.748;19.620;2023-09-12T03:06:29;98681.80;;;14.70
69007;BMP180;56061;51.748;19.620;2023-09-12T03:08:57;98681.00;;;14.70
69007;BMP180;56061;51.748;19.620;2023-09-12T03:11:26;98680.80;;;14.70
69007;BMP180;56061;51.748;19.620;2023-09-12T03:13:54;98684.80;;;14.70
69007;BMP180;56061;51.748;19.620;2023-09-12T03:16:20;98683.20;;;14.60
69007;BMP180;56061;51.748;19.620;2023-09-12T03:18:47;98682.20;;;14.60
69007;BMP180;56061;51.748;19.620;2023-09-12T03:21:13;98679.60;;;14.60
69007;BMP180;56061;51.748;19.620;2023-09-12T03:23:40;98684.40;;;14.56
69007;BMP180;56061;51.748;19.620;2023-09-12T03:26:07;98681.40;;;14.50
69007;BMP180;56061;51.748;19.620;2023-09-12T03:28:33;98683.00;;;14.50
69007;BMP180;56061;51.748;19.620;2023-09-12T03:31:07;98689.40;;;14.40
69007;BMP180;56061;51.748;19.620;2023-09-12T03:33:35;98687.20;;;14.40
69007;BMP180;56061;51.748;19.620;2023-09-12T03:36:01;98683.00;;;14.34
69007;BMP180;56061;51.748;19.620;2023-09-12T03:38:28;98682.20;;;14.30
69007;BMP180;56061;51.748;19.620;2023-09-12T03:40:54;98682.20;;;14.30
69007;BMP180;56061;51.748;19.620;2023-09-12T03:43:20;98682.40;;;14.22
69007;BMP180;56061;51.748;19.620;2023-09-12T03:45:47;98685.60;;;14.20
69007;BMP180;56061;51.748;19.620;2023-09-12T03:48:13;98684.00;;;14.20
69007;BMP180;56061;51.748;19.620;2023-09-12T03:50:40;98680.20;;;14.20
69007;BMP180;56061;51.748;19.620;2023-09-12T03:53:06;98684.00;;;14.18
69007;BMP180;56061;51.748;19.620;2023-09-12T03:55:33;98681.40;;;14.10
69007;BMP180;56061;51.748;19.620;2023-09-12T03:57:59;98682.40;;;14.10
69007;BMP180;56061;51.748;19.620;2023-09-12T04:00:26;98684.40;;;14.10
69007;BMP180;56061;51.748;19.620;2023-09-12T04:02:52;98687.40;;;14.10
69007;BMP180;56061;51.748;19.620;2023-09-12T04:05:19;98684.80;;;14.08
69007;BMP180;56061;51.748;19.620;2023-09-12T04:07:45;98687.00;;;14.02
69007;BMP180;56061;51.748;19.620;2023-09-12T04:10:12;98686.00;;;14.00
69007;BMP180;56061;51.748;19.620;2023-09-12T04:12:38;98686.40;;;14.00
69007;BMP180;56061;51.748;19.620;2023-09-12T04:15:06;98684.80;;;14.00
69007;BMP180;56061;51.748;19.620;2023-09-12T04:17:33;98684.60;;;14.00
69007;BMP180;56061;51.748;19.620;2023-09-12T04:19:59;98683.00;;;14.00
69007;BMP180;56061;51.748;19.620;2023-09-12T04:22:26;98683.20;;;14.00
69007;BMP180;56061;51.748;19.620;2023-09-12T04:24:52;98680.40;;;14.00
69007;BMP180;56061;51.748;19.620;2023-09-12T04:27:19;98685.60;;;14.00
69007;BMP180;56061;51.748;19.620;2023-09-12T04:29:45;98684.00;;;14.00
69007;BMP180;56061;51.748;19.620;2023-09-12T04:32:12;98682.60;;;14.10
69007;BMP180;56061;51.748;19.620;2023-09-12T04:34:38;98686.40;;;14.10
69007;BMP180;56061;51.748;19.620;2023-09-12T04:37:05;98685.60;;;14.10
69007;BMP180;56061;51.748;19.620;2023-09-12T04:39:32;98686.20;;;14.10
69007;BMP180;56061;51.748;19.620;2023-09-12T04:41:59;98687.20;;;14.10
69007;BMP180;56061;51.748;19.620;2023-09-12T04:44:25;98684.60;;;14.10
69007;BMP180;56061;51.748;19.620;2023-09-12T04:46:52;98689.60;;;14.10
69007;BMP180;56061;51.748;19.620;2023-09-12T04:49:18;98690.80;;;14.12
69007;BMP180;56061;51.748;19.620;2023-09-12T04:51:45;98692.00;;;14.20
69007;BMP180;56061;51.748;19.620;2023-09-12T04:54:11;98693.00;;;14.20
69007;BMP180;56061;51.748;19.620;2023-09-12T04:56:38;98696.40;;;14.20
69007;BMP180;56061;51.748;19.620;2023-09-12T04:59:04;98697.40;;;14.20
69007;BMP180;56061;51.748;19.620;2023-09-12T05:01:33;98698.60;;;14.24
69007;BMP180;56061;51.748;19.620;2023-09-12T05:03:59;98696.60;;;14.30
69007;BMP180;56061;51.748;19.620;2023-09-12T05:06:26;98693.20;;;14.30
69007;BMP180;56061;51.748;19.620;2023-09-12T05:08:52;98696.20;;;14.30
69007;BMP180;56061;51.748;19.620;2023-09-12T05:11:19;98699.60;;;14.40
69007;BMP180;56061;51.748;19.620;2023-09-12T05:13:45;98703.80;;;14.40
69007;BMP180;56061;51.748;19.620;2023-09-12T05:16:12;98701.40;;;14.50
69007;BMP180;56061;51.748;19.620;2023-09-12T05:18:38;98705.20;;;14.60
69007;BMP180;56061;51.748;19.620;2023-09-12T05:21:05;98707.80;;;14.70
69007;BMP180;56061;51.748;19.620;2023-09-12T05:23:32;98708.40;;;14.80
69007;BMP180;56061;51.748;19.620;2023-09-12T05:25:58;98713.40;;;14.90
69007;BMP180;56061;51.748;19.620;2023-09-12T05:28:25;98710.40;;;15.00
69007;BMP180;56061;51.748;19.620;2023-09-12T05:30:52;98712.40;;;15.10
69007;BMP180;56061;51.748;19.620;2023-09-12T05:33:19;98714.00;;;15.20
69007;BMP180;56061;51.748;19.620;2023-09-12T05:35:46;98713.40;;;15.30
69007;BMP180;56061;51.748;19.620;2023-09-12T05:38:12;98713.80;;;15.40
69007;BMP180;56061;51.748;19.620;2023-09-12T05:40:39;98709.80;;;15.50
69007;BMP180;56061;51.748;19.620;2023-09-12T05:43:06;98715.60;;;15.60
69007;BMP180;56061;51.748;19.620;2023-09-12T05:45:32;98715.20;;;15.70
69007;BMP180;56061;51.748;19.620;2023-09-12T05:48:00;98713.80;;;15.80
69007;BMP180;56061;51.748;19.620;2023-09-12T05:50:26;98715.20;;;15.90
69007;BMP180;56061;51.748;19.620;2023-09-12T05:52:53;98719.80;;;16.06
69007;BMP180;56061;51.748;19.620;2023-09-12T05:55:19;98713.60;;;16.20
69007;BMP180;56061;51.748;19.620;2023-09-12T05:57:46;98714.20;;;16.30
69007;BMP180;56061;51.748;19.620;2023-09-12T06:00:14;98713.00;;;16.42
69007;BMP180;56061;51.748;19.620;2023-09-12T06:02:41;98713.00;;;16.60
69007;BMP180;56061;51.748;19.620;2023-09-12T06:05:08;98711.20;;;16.76
69007;BMP180;56061;51.748;19.620;2023-09-12T06:07:35;98709.60;;;16.92
69007;BMP180;56061;51.748;19.620;2023-09-12T06:10:04;98710.80;;;17.10
69007;BMP180;56061;51.748;19.620;2023-09-12T06:12:31;98714.20;;;17.28
69007;BMP180;56061;51.748;19.620;2023-09-12T06:14:59;98715.00;;;17.40
69007;BMP180;56061;51.748;19.620;2023-09-12T06:17:26;98716.00;;;17.60
69007;BMP180;56061;51.748;19.620;2023-09-12T06:19:54;98719.00;;;17.70
69007;BMP180;56061;51.748;19.620;2023-09-12T06:22:21;98722.20;;;17.88
69007;BMP180;56061;51.748;19.620;2023-09-12T06:24:50;98723.00;;;18.00
69007;BMP180;56061;51.748;19.620;2023-09-12T06:27:17;98722.60;;;18.10
69007;BMP180;56061;51.748;19.620;2023-09-12T06:29:47;98724.40;;;18.28
69007;BMP180;56061;51.748;19.620;2023-09-12T06:32:15;98725.80;;;18.40
69007;BMP180;56061;51.748;19.620;2023-09-12T06:34:42;98726.40;;;18.50
69007;BMP180;56061;51.748;19.620;2023-09-12T06:37:11;98731.60;;;18.70
69007;BMP180;56061;51.748;19.620;2023-09-12T06:39:38;98727.20;;;18.80
69007;BMP180;56061;51.748;19.620;2023-09-12T06:42:05;98726.40;;;18.90
69007;BMP180;56061;51.748;19.620;2023-09-12T06:44:31;98728.60;;;19.00
69007;BMP180;56061;51.748;19.620;2023-09-12T06:46:58;98727.80;;;19.10
69007;BMP180;56061;51.748;19.620;2023-09-12T06:49:24;98728.60;;;19.20
69007;BMP180;56061;51.748;19.620;2023-09-12T06:51:51;98726.60;;;19.30
69007;BMP180;56061;51.748;19.620;2023-09-12T06:54:18;98725.00;;;19.40
69007;BMP180;56061;51.748;19.620;2023-09-12T06:56:45;98726.00;;;19.50
69007;BMP180;56061;51.748;19.620;2023-09-12T06:59:11;98729.40;;;19.60
69007;BMP180;56061;51.748;19.620;2023-09-12T07:01:38;98726.00;;;19.80
69007;BMP180;56061;51.748;19.620;2023-09-12T07:04:04;98733.80;;;19.90
69007;BMP180;56061;51.748;19.620;2023-09-12T07:06:31;98730.60;;;20.00
69007;BMP180;56061;51.748;19.620;2023-09-12T07:08:59;98733.20;;;20.20
69007;BMP180;56061;51.748;19.620;2023-09-12T07:11:26;98731.00;;;20.30
69007;BMP180;56061;51.748;19.620;2023-09-12T07:13:52;98730.20;;;20.40
69007;BMP180;56061;51.748;19.620;2023-09-12T07:16:19;98731.20;;;20.50
69007;BMP180;56061;51.748;19.620;2023-09-12T07:18:50;98732.60;;;20.60
69007;BMP180;56061;51.748;19.620;2023-09-12T07:21:17;98731.20;;;20.64
69007;BMP180;56061;51.748;19.620;2023-09-12T07:23:44;98733.00;;;20.78
69007;BMP180;56061;51.748;19.620;2023-09-12T07:26:13;98733.60;;;20.90
69007;BMP180;56061;51.748;19.620;2023-09-12T07:28:40;98734.00;;;21.00
69007;BMP180;56061;51.748;19.620;2023-09-12T07:31:07;98740.60;;;21.20
69007;BMP180;56061;51.748;19.620;2023-09-12T07:33:35;98737.40;;;21.30
69007;BMP180;56061;51.748;19.620;2023-09-12T07:36:02;98735.20;;;21.50
69007;BMP180;56061;51.748;19.620;2023-09-12T07:38:29;98736.40;;;21.60
69007;BMP180;56061;51.748;19.620;2023-09-12T07:41:01;98736.20;;;21.74
69007;BMP180;56061;51.748;19.620;2023-09-12T07:43:29;98736.60;;;21.80
69007;BMP180;56061;51.748;19.620;2023-09-12T07:45:59;98732.20;;;21.94
69007;BMP180;56061;51.748;19.620;2023-09-12T07:48:26;98731.60;;;22.10
69007;BMP180;56061;51.748;19.620;2023-09-12T07:50:53;98730.80;;;22.20
69007;BMP180;56061;51.748;19.620;2023-09-12T07:53:20;98732.00;;;22.30
69007;BMP180;56061;51.748;19.620;2023-09-12T07:55:46;98727.40;;;22.40
69007;BMP180;56061;51.748;19.620;2023-09-12T07:58:28;98723.40;;;22.50
69007;BMP180;56061;51.748;19.620;2023-09-12T08:00:55;98723.60;;;22.68
69007;BMP180;56061;51.748;19.620;2023-09-12T08:03:21;98721.00;;;22.80
69007;BMP180;56061;51.748;19.620;2023-09-12T08:05:57;98724.60;;;22.82
69007;BMP180;56061;51.748;19.620;2023-09-12T08:10:58;98724.20;;;23.02
69007;BMP180;56061;51.748;19.620;2023-09-12T08:15:56;98722.60;;;23.26
69007;BMP180;56061;51.748;19.620;2023-09-12T08:18:29;98722.60;;;23.30
69007;BMP180;56061;51.748;19.620;2023-09-12T08:20:59;98721.60;;;23.44
69007;BMP180;56061;51.748;19.620;2023-09-12T08:23:26;98723.40;;;23.60
69007;BMP180;56061;51.748;19.620;2023-09-12T08:25:52;98722.60;;;23.68
69007;BMP180;56061;51.748;19.620;2023-09-12T08:28:19;98717.40;;;23.80
69007;BMP180;56061;51.748;19.620;2023-09-12T08:30:45;98720.60;;;23.90
69007;BMP180;56061;51.748;19.620;2023-09-12T08:33:24;98717.40;;;24.00
69007;BMP180;56061;51.748;19.620;2023-09-12T08:35:52;98722.20;;;24.10
69007;BMP180;56061;51.748;19.620;2023-09-12T08:38:18;98719.80;;;24.30
69007;BMP180;56061;51.748;19.620;2023-09-12T08:40:49;98721.00;;;24.40
69007;BMP180;56061;51.748;19.620;2023-09-12T08:43:23;98719.60;;;24.50
69007;BMP180;56061;51.748;19.620;2023-09-12T08:45:50;98722.60;;;24.60
69007;BMP180;56061;51.748;19.620;2023-09-12T08:48:18;98721.00;;;24.70
69007;BMP180;56061;51.748;19.620;2023-09-12T08:50:52;98723.20;;;24.82
69007;BMP180;56061;51.748;19.620;2023-09-12T08:53:20;98720.20;;;24.92
69007;BMP180;56061;51.748;19.620;2023-09-12T08:55:53;98719.40;;;25.08
69007;BMP180;56061;51.748;19.620;2023-09-12T08:58:20;98718.00;;;25.20
69007;BMP180;56061;51.748;19.620;2023-09-12T09:00:48;98718.00;;;25.30
69007;BMP180;56061;51.748;19.620;2023-09-12T09:03:15;98712.20;;;25.40
69007;BMP180;56061;51.748;19.620;2023-09-12T09:05:43;98709.60;;;25.50
69007;BMP180;56061;51.748;19.620;2023-09-12T09:08:12;98708.00;;;25.50
69007;BMP180;56061;51.748;19.620;2023-09-12T09:10:39;98707.60;;;25.60
69007;BMP180;56061;51.748;19.620;2023-09-12T09:13:17;98712.80;;;25.60
69007;BMP180;56061;51.748;19.620;2023-09-12T09:15:44;98711.00;;;25.60
69007;BMP180;56061;51.748;19.620;2023-09-12T09:18:11;98710.00;;;25.70
69007;BMP180;56061;51.748;19.620;2023-09-12T09:20:40;98711.60;;;25.80
69007;BMP180;56061;51.748;19.620;2023-09-12T09:23:09;98713.60;;;25.90
69007;BMP180;56061;51.748;19.620;2023-09-12T09:25:42;98711.80;;;26.00
69007;BMP180;56061;51.748;19.620;2023-09-12T09:28:20;98715.80;;;26.00
69007;BMP180;56061;51.748;19.620;2023-09-12T09:30:51;98714.00;;;26.10
69007;BMP180;56061;51.748;19.620;2023-09-12T09:33:18;98704.80;;;26.20
69007;BMP180;56061;51.748;19.620;2023-09-12T09:35:47;98705.60;;;26.20
69007;BMP180;56061;51.748;19.620;2023-09-12T09:38:19;98706.00;;;26.30
69007;BMP180;56061;51.748;19.620;2023-09-12T09:40:48;98708.60;;;26.40
69007;BMP180;56061;51.748;19.620;2023-09-12T09:43:20;98707.00;;;26.50
69007;BMP180;56061;51.748;19.620;2023-09-12T09:45:48;98705.00;;;26.52
69007;BMP180;56061;51.748;19.620;2023-09-12T09:48:20;98704.60;;;26.70
69007;BMP180;56061;51.748;19.620;2023-09-12T09:50:48;98708.00;;;26.80
69007;BMP180;56061;51.748;19.620;2023-09-12T09:53:14;98705.40;;;26.90
69007;BMP180;56061;51.748;19.620;2023-09-12T09:55:41;98704.60;;;27.00
69007;BMP180;56061;51.748;19.620;2023-09-12T09:58:15;98705.20;;;27.10
69007;BMP180;56061;51.748;19.620;2023-09-12T10:00:45;98698.20;;;27.20
69007;BMP180;56061;51.748;19.620;2023-09-12T10:03:18;98697.40;;;27.30
69007;BMP180;56061;51.748;19.620;2023-09-12T10:05:50;98696.20;;;27.40
69007;BMP180;56061;51.748;19.620;2023-09-12T10:08:23;98696.80;;;27.50
69007;BMP180;56061;51.748;19.620;2023-09-12T10:10:51;98695.80;;;27.50
69007;BMP180;56061;51.748;19.620;2023-09-12T10:13:20;98698.40;;;27.50
69007;BMP180;56061;51.748;19.620;2023-09-12T10:15:49;98699.20;;;27.50
69007;BMP180;56061;51.748;19.620;2023-09-12T10:18:22;98692.40;;;27.50
69007;BMP180;56061;51.748;19.620;2023-09-12T10:21:10;98694.20;;;27.60
69007;BMP180;56061;51.748;19.620;2023-09-12T10:23:44;98691.60;;;27.54
69007;BMP180;56061;51.748;19.620;2023-09-12T10:26:13;98690.80;;;27.60
69007;BMP180;56061;51.748;19.620;2023-09-12T10:28:41;98689.20;;;27.60
69007;BMP180;56061;51.748;19.620;2023-09-12T10:31:12;98682.40;;;27.60
69007;BMP180;56061;51.748;19.620;2023-09-12T10:33:43;98688.20;;;27.62
69007;BMP180;56061;51.748;19.620;2023-09-12T10:36:12;98690.80;;;27.70
69007;BMP180;56061;51.748;19.620;2023-09-12T10:38:45;98685.20;;;27.70
69007;BMP180;56061;51.748;19.620;2023-09-12T10:41:14;98688.40;;;27.70
69007;BMP180;56061;51.748;19.620;2023-09-12T10:43:44;98688.80;;;27.68
69007;BMP180;56061;51.748;19.620;2023-09-12T10:46:14;98689.20;;;27.70
69007;BMP180;56061;51.748;19.620;2023-09-12T10:48:41;98689.60;;;27.70
69007;BMP180;56061;51.748;19.620;2023-09-12T10:51:09;98683.80;;;27.74
69007;BMP180;56061;51.748;19.620;2023-09-12T10:53:36;98683.60;;;27.80
69007;BMP180;56061;51.748;19.620;2023-09-12T11:01:37;98681.40;;;27.90
69007;BMP180;56061;51.748;19.620;2023-09-12T11:06:47;98683.20;;;28.00
69007;BMP180;56061;51.748;19.620;2023-09-12T11:09:21;98682.40;;;28.10
69007;BMP180;56061;51.748;19.620;2023-09-12T11:11:59;98678.40;;;28.10
69007;BMP180;56061;51.748;19.620;2023-09-12T11:22:21;98678.00;;;28.18
69007;BMP180;56061;51.748;19.620;2023-09-12T11:24:48;98681.80;;;28.22
69007;BMP180;56061;51.748;19.620;2023-09-12T11:27:15;98681.60;;;28.40
69007;BMP180;56061;51.748;19.620;2023-09-12T11:29:43;98686.60;;;28.50
69007;BMP180;56061;51.748;19.620;2023-09-12T11:32:10;98686.80;;;28.60
69007;BMP180;56061;51.748;19.620;2023-09-12T11:34:41;98682.60;;;28.70
69007;BMP180;56061;51.748;19.620;2023-09-12T11:37:08;98684.40;;;28.78
69007;BMP180;56061;51.748;19.620;2023-09-12T11:39:37;98683.20;;;28.80
69007;BMP180;56061;51.748;19.620;2023-09-12T11:42:10;98691.00;;;28.80
69007;BMP180;56061;51.748;19.620;2023-09-12T11:44:38;98687.80;;;28.80
69007;BMP180;56061;51.748;19.620;2023-09-12T11:47:05;98685.60;;;28.86
69007;BMP180;56061;51.748;19.620;2023-09-12T11:49:39;98686.80;;;28.88
69007;BMP180;56061;51.748;19.620;2023-09-12T11:52:14;98688.00;;;28.82
69007;BMP180;56061;51.748;19.620;2023-09-12T11:54:46;98690.20;;;28.80
69007;BMP180;56061;51.748;19.620;2023-09-12T11:57:15;98690.20;;;28.80
69007;BMP180;56061;51.748;19.620;2023-09-12T11:59:46;98688.60;;;28.80
69007;BMP180;56061;51.748;19.620;2023-09-12T12:02:15;98683.20;;;28.82
69007;BMP180;56061;51.748;19.620;2023-09-12T12:04:42;98685.60;;;28.90
69007;BMP180;56061;51.748;19.620;2023-09-12T12:07:10;98679.40;;;28.90
69007;BMP180;56061;51.748;19.620;2023-09-12T12:09:38;98678.80;;;28.90
69007;BMP180;56061;51.748;19.620;2023-09-12T12:12:12;98669.80;;;29.00
69007;BMP180;56061;51.748;19.620;2023-09-12T12:14:41;98674.80;;;29.00
69007;BMP180;56061;51.748;19.620;2023-09-12T12:17:09;98678.00;;;29.08
69007;BMP180;56061;51.748;19.620;2023-09-12T12:19:45;98677.40;;;29.10
69007;BMP180;56061;51.748;19.620;2023-09-12T12:22:12;98673.80;;;29.10
69007;BMP180;56061;51.748;19.620;2023-09-12T12:24:41;98678.40;;;29.20
69007;BMP180;56061;51.748;19.620;2023-09-12T12:27:08;98674.00;;;29.20
69007;BMP180;56061;51.748;19.620;2023-09-12T12:29:38;98666.80;;;29.20
69007;BMP180;56061;51.748;19.620;2023-09-12T12:32:06;98664.60;;;29.24
69007;BMP180;56061;51.748;19.620;2023-09-12T12:34:36;98670.00;;;29.30
69007;BMP180;56061;51.748;19.620;2023-09-12T12:37:29;98663.20;;;29.30
69007;BMP180;56061;51.748;19.620;2023-09-12T12:40:00;98667.40;;;29.30
69007;BMP180;56061;51.748;19.620;2023-09-12T12:44:57;98664.20;;;29.30
69007;BMP180;56061;51.748;19.620;2023-09-12T12:47:23;98667.00;;;29.40
69007;BMP180;56061;51.748;19.620;2023-09-12T12:49:52;98661.40;;;29.40
69007;BMP180;56061;51.748;19.620;2023-09-12T12:52:26;98659.20;;;29.50
69007;BMP180;56061;51.748;19.620;2023-09-12T12:54:52;98661.60;;;29.60
69007;BMP180;56061;51.748;19.620;2023-09-12T12:57:21;98658.40;;;29.70
69007;BMP180;56061;51.748;19.620;2023-09-12T12:59:48;98655.60;;;29.80
69007;BMP180;56061;51.748;19.620;2023-09-12T13:02:15;98654.00;;;29.90
69007;BMP180;56061;51.748;19.620;2023-09-12T13:04:41;98651.40;;;30.00
69007;BMP180;56061;51.748;19.620;2023-09-12T13:07:08;98650.40;;;30.10
69007;BMP180;56061;51.748;19.620;2023-09-12T13:09:35;98650.60;;;30.20
69007;BMP180;56061;51.748;19.620;2023-09-12T13:12:01;98654.80;;;30.30
69007;BMP180;56061;51.748;19.620;2023-09-12T13:14:28;98651.00;;;30.36
69007;BMP180;56061;51.748;19.620;2023-09-12T13:16:56;98653.40;;;30.40
69007;BMP180;56061;51.748;19.620;2023-09-12T13:19:23;98651.20;;;30.40
69007;BMP180;56061;51.748;19.620;2023-09-12T13:21:49;98646.40;;;30.40
69007;BMP180;56061;51.748;19.620;2023-09-12T13:24:16;98648.20;;;30.50
69007;BMP180;56061;51.748;19.620;2023-09-12T13:26:42;98642.80;;;30.58
69007;BMP180;56061;51.748;19.620;2023-09-12T13:29:09;98644.20;;;30.60
69007;BMP180;56061;51.748;19.620;2023-09-12T13:31:36;98650.00;;;30.60
69007;BMP180;56061;51.748;19.620;2023-09-12T13:34:03;98650.80;;;30.60
69007;BMP180;56061;51.748;19.620;2023-09-12T13:36:30;98653.40;;;30.60
69007;BMP180;56061;51.748;19.620;2023-09-12T13:38:57;98654.80;;;30.60
69007;BMP180;56061;51.748;19.620;2023-09-12T13:41:23;98653.00;;;30.50
69007;BMP180;56061;51.748;19.620;2023-09-12T13:43:51;98655.40;;;30.50
69007;BMP180;56061;51.748;19.620;2023-09-12T13:46:18;98656.40;;;30.40
69007;BMP180;56061;51.748;19.620;2023-09-12T13:48:45;98659.20;;;30.40
69007;BMP180;56061;51.748;19.620;2023-09-12T13:51:14;98657.40;;;30.40
69007;BMP180;56061;51.748;19.620;2023-09-12T13:53:40;98663.60;;;30.40
69007;BMP180;56061;51.748;19.620;2023-09-12T13:56:07;98665.20;;;30.50
69007;BMP180;56061;51.748;19.620;2023-09-12T13:58:51;98663.40;;;30.60
69007;BMP180;56061;51.748;19.620;2023-09-12T14:01:18;98665.60;;;30.70
69007;BMP180;56061;51.748;19.620;2023-09-12T14:03:54;98662.00;;;30.78
69007;BMP180;56061;51.748;19.620;2023-09-12T14:06:22;98668.20;;;30.80
69007;BMP180;56061;51.748;19.620;2023-09-12T14:08:49;98662.60;;;30.90
69007;BMP180;56061;51.748;19.620;2023-09-12T14:11:15;98661.80;;;30.90
69007;BMP180;56061;51.748;19.620;2023-09-12T14:13:54;98656.40;;;30.90
69007;BMP180;56061;51.748;19.620;2023-09-12T14:16:38;98657.00;;;30.90
69007;BMP180;56061;51.748;19.620;2023-09-12T14:19:07;98658.60;;;30.82
69007;BMP180;56061;51.748;19.620;2023-09-12T14:21:34;98655.80;;;30.80
69007;BMP180;56061;51.748;19.620;2023-09-12T14:24:03;98655.60;;;30.90
69007;BMP180;56061;51.748;19.620;2023-09-12T14:26:31;98650.40;;;30.90
69007;BMP180;56061;51.748;19.620;2023-09-12T14:28:59;98649.80;;;30.90
69007;BMP180;56061;51.748;19.620;2023-09-12T14:31:26;98655.00;;;31.00